Atlantis — PCDT — position and weather

sailwx.info

Track history (hours):
 
Tides and Currents Weather Stations Pressure Air Temp Water Temp Dewpoint Dewpoint Depression Visibility Wind Speed Wind Dir Waves Ship Positions

Atlantis (Netherlands)

Ship's website: http://www.tallship-company.com/artemis/gb_atlantis.htm

Last reported at 2016-May-29 07:32 UTC. Time now 2016-May-29 07:46 UTC.
Position N 51°14' E 002°56'.

Length 40 m; draft 4.5 m.

Type: Sailing vessel. MMSI: 246253000.

Date/timePositionNaut miles runAvg speedWind from/ knotsBaromVisibWave heightAir tempDewpointWater temp
2016-May-29 07:32N 51°14' E 002°56'0 0.0
2016-May-29 06:32N 51°14' E 002°56'0 0.0
2016-May-29 05:32N 51°14' E 002°56'0 0.0
2016-May-29 04:32N 51°14' E 002°56'0 0.0
2016-May-29 03:32N 51°14' E 002°56'0 0.0
2016-May-29 02:33N 51°14' E 002°56'0 0.0
2016-May-29 01:32N 51°14' E 002°56'0 0.0
2016-May-29 00:32N 51°14' E 002°56'0 0.0
2016-May-28 23:32N 51°14' E 002°56'0 0.0
2016-May-28 22:32N 51°14' E 002°56'0 0.0
2016-May-28 21:32N 51°14' E 002°56'0 0.0
2016-May-28 20:32N 51°14' E 002°56'0 0.0
2016-May-28 19:32N 51°14' E 002°56'0 0.0
2016-May-28 18:32N 51°14' E 002°56'0 0.0
2016-May-28 17:32N 51°14' E 002°56'0 0.0
2016-May-28 16:33N 51°14' E 002°56'3 3.4
2016-May-28 15:33N 51°17' E 002°53'1 0.9
2016-May-28 14:33N 51°17' E 002°52'4 4.1
2016-May-28 13:32N 51°14' E 002°56'0 0.0
2016-May-28 12:31N 51°14' E 002°56'0 0.0
2016-May-28 11:31N 51°14' E 002°56'0 0.0
2016-May-28 10:31N 51°14' E 002°56'0 0.0
2016-May-28 09:31N 51°14' E 002°56'0 0.0
2016-May-28 08:28N 51°14' E 002°56'0 0.0
2016-May-28 07:31N 51°14' E 002°56'0 0.0
2016-May-28 06:31N 51°14' E 002°56'0 0.0
2016-May-28 05:31N 51°14' E 002°56'0 0.0
2016-May-28 04:31N 51°14' E 002°56'0 0.0
2016-May-28 03:28N 51°14' E 002°56'0 0.0
2016-May-28 02:31N 51°14' E 002°56'0 0.0
2016-May-28 01:31N 51°14' E 002°56'0 0.0
2016-May-28 00:31N 51°14' E 002°56'0 0.0
2016-May-27 23:31N 51°14' E 002°56'0 0.0
2016-May-27 22:31N 51°14' E 002°56'0 0.0
2016-May-27 21:31N 51°14' E 002°56'0 0.0
2016-May-27 20:31N 51°14' E 002°56'0 0.0
2016-May-27 19:33N 51°14' E 002°56'0 0.0
2016-May-27 18:32N 51°14' E 002°56'1 1.0
2016-May-27 17:34N 51°15' E 002°55'3 2.8
2016-May-27 16:34N 51°17' E 002°52'4 3.8
2016-May-27 15:34N 51°14' E 002°56'0 0.0
2016-May-27 14:33N 51°14' E 002°56'2 2.2
2016-May-27 13:33N 51°16' E 002°54'0 0.4
2016-May-27 12:33N 51°15' E 002°54'2 1.8
2016-May-27 11:33N 51°14' E 002°56'0 0.0
2016-May-27 10:33N 51°14' E 002°56'0 0.0
2016-May-27 09:33N 51°14' E 002°56'0 0.0
2016-May-27 08:33N 51°14' E 002°56'0 0.1
2016-May-27 07:33N 51°14' E 002°56'0 0.1
2016-May-27 06:33N 51°14' E 002°56'0 0.0
2016-May-27 05:33N 51°14' E 002°56'0 0.0
2016-May-27 04:31N 51°14' E 002°56'0 0.0
2016-May-27 03:33N 51°14' E 002°56'0 0.0
2016-May-27 02:33N 51°14' E 002°56'0 0.0
2016-May-27 01:33N 51°14' E 002°56'0 0.0
2016-May-27 00:33N 51°14' E 002°56'0 0.0
2016-May-26 23:33N 51°14' E 002°56'0 0.0
2016-May-26 22:33N 51°14' E 002°56'0 0.0
2016-May-26 21:33N 51°14' E 002°56'0 0.0
2016-May-26 20:33N 51°14' E 002°56'0 0.0
2016-May-26 19:33N 51°14' E 002°56'0 0.0
2016-May-26 18:33N 51°14' E 002°56'0 0.0
2016-May-26 17:33N 51°14' E 002°56'0 0.0
2016-May-26 16:33N 51°14' E 002°56'0 0.0
2016-May-26 15:33N 51°14' E 002°56'0 0.0
2016-May-26 14:33N 51°14' E 002°56'0 0.0
2016-May-26 13:33N 51°14' E 002°56'0 0.0
2016-May-26 12:33N 51°14' E 002°56'0 0.0
2016-May-26 11:34N 51°14' E 002°56'0 0.0
2016-May-26 10:34N 51°14' E 002°56'1 1.2
2016-May-26 09:33N 51°15' E 002°54'2 2.2
2016-May-26 08:33N 51°17' E 002°53'3 3.3
2016-May-26 07:33N 51°14' E 002°56'0 0.0
2016-May-26 06:27N 51°14' E 002°56'0 0.0
2016-May-26 05:33N 51°14' E 002°56'0 0.0
2016-May-26 04:33N 51°14' E 002°56'0 0.0
2016-May-26 03:33N 51°14' E 002°56'0 0.0
2016-May-26 02:33N 51°14' E 002°56'0 0.0
2016-May-26 01:33N 51°14' E 002°56'0 0.0
2016-May-26 00:33N 51°14' E 002°56'0 0.0
2016-May-25 23:33N 51°14' E 002°56'0 0.0
2016-May-25 22:33N 51°14' E 002°56'0 0.0
2016-May-25 21:33N 51°14' E 002°56'0 0.0
2016-May-25 20:30N 51°14' E 002°56'0 0.0
2016-May-25 19:33N 51°14' E 002°56'0 0.0
2016-May-25 18:33N 51°14' E 002°56'0 0.0
2016-May-25 17:33N 51°14' E 002°56'0 0.0
2016-May-25 16:33N 51°14' E 002°56'0 0.0
2016-May-25 15:33N 51°14' E 002°56'0 0.0
2016-May-25 14:30N 51°14' E 002°56'0 0.0
2016-May-25 13:33N 51°14' E 002°56'0 0.0
2016-May-25 12:33N 51°14' E 002°56'0 0.0
2016-May-25 11:33N 51°14' E 002°56'7 6.7
2016-May-25 10:29N 51°21' E 002°53'9 8.9
2016-May-25 09:28N 51°29' E 002°59'61 6.6
2016-May-25 00:19N 52°22' E 003°46'9 7.8
2016-May-24 23:13N 52°30' E 003°53'6 8.2
2016-May-24 22:31N 52°34' E 003°59'9 8.8
2016-May-24 21:33N 52°40' E 004°09'8 7.9
2016-May-24 20:34N 52°46' E 004°18'7 6.8
2016-May-24 19:34N 52°52' E 004°23'6 6.3
2016-May-24 18:32N 52°58' E 004°28'6 5.7
2016-May-24 17:30N 53°03' E 004°33'31 7.7
2016-May-24 13:29N 53°27' E 005°06'8 8.6
2016-May-24 12:33N 53°30' E 005°18'8 8.4
2016-May-24 11:34N 53°32' E 005°32'7 7.4
2016-May-24 10:33N 53°34' E 005°44'7 7.0
2016-May-24 09:33N 53°36' E 005°55'7 6.8
2016-May-24 08:34N 53°38' E 006°06'7 6.6
2016-May-24 07:33N 53°41' E 006°16'7 7.3
2016-May-24 06:33N 53°43' E 006°28'8 8.0
2016-May-24 05:34N 53°45' E 006°41'8 7.8
2016-May-24 04:33N 53°47' E 006°54'8 8.1
2016-May-24 03:34N 53°48' E 007°07'8 7.6
2016-May-24 02:34N 53°49' E 007°20'8 7.7
2016-May-24 01:33N 53°50' E 007°33'15 7.6
2016-May-23 23:32N 53°57' E 007°56'8 7.9
2016-May-23 22:33N 54°01' E 008°07'6 5.8
2016-May-23 21:33N 54°01' E 008°16'4 4.4
2016-May-23 20:33N 53°60' E 008°24'5 5.1
2016-May-23 19:33N 53°58' E 008°32'8 8.1
2016-May-23 18:33N 53°53' E 008°43'10 9.6
2016-May-23 17:33N 53°51' E 008°59'7 6.6
2016-May-23 16:33N 53°54' E 009°09'8 7.9
2016-May-23 15:33N 53°60' E 009°17'24 7.4
2016-May-23 12:16N 54°19' E 009°43'6 7.6
2016-May-23 11:31N 54°22' E 009°51'7 6.9
2016-May-23 10:33N 54°22' E 010°03'3 3.3
2016-May-23 09:31N 54°22' E 010°08'0 0.4
2016-May-23 08:31N 54°22' E 010°09'0 0.0
2016-May-23 07:31N 54°22' E 010°09'0 0.0
2016-May-23 06:31N 54°22' E 010°09'0 0.0
2016-May-23 05:31N 54°22' E 010°09'0 0.0
2016-May-23 04:31N 54°22' E 010°09'0 0.0
2016-May-23 03:28N 54°22' E 010°09'0 0.0
2016-May-23 02:31N 54°22' E 010°09'0 0.0
2016-May-23 01:31N 54°22' E 010°09'0 0.0
2016-May-23 00:31N 54°22' E 010°09'0 0.0
2016-May-22 23:31N 54°22' E 010°09'0 0.0
2016-May-22 22:31N 54°22' E 010°09'0 0.0
2016-May-22 21:31N 54°22' E 010°09'0 0.0
2016-May-22 20:31N 54°22' E 010°09'0 0.0
2016-May-22 19:31N 54°22' E 010°09'0 0.0
2016-May-22 18:31N 54°22' E 010°09'0 0.0
2016-May-22 17:31N 54°22' E 010°09'0 0.0
2016-May-22 16:31N 54°22' E 010°09'0 0.0
2016-May-22 15:31N 54°22' E 010°09'0 0.0
2016-May-22 14:31N 54°22' E 010°09'0 0.0
2016-May-22 13:31N 54°22' E 010°09'2 2.0
2016-May-22 12:33N 54°23' E 010°12'5 4.9
2016-May-22 11:33N 54°28' E 010°14'15 6.7
2016-May-22 09:17N 54°42' E 010°05'9 5.1
2016-May-22 07:31N 54°50' E 009°56'13 0.6
2016-May-21 10:32N 54°48' E 010°18'6 6.1
2016-May-21 09:33N 54°47' E 010°28'6 5.8
2016-May-21 08:33N 54°46' E 010°38'2 1.7
2016-May-21 07:33N 54°45' E 010°40'0 0.0
2016-May-21 06:33N 54°45' E 010°40'0 0.0
2016-May-21 05:33N 54°45' E 010°40'0 0.0
2016-May-21 04:33N 54°45' E 010°40'0 0.0
2016-May-21 03:33N 54°45' E 010°40'0 0.0
2016-May-21 02:33N 54°45' E 010°40'0 0.0
2016-May-21 01:33N 54°45' E 010°40'0 0.0
2016-May-21 00:33N 54°45' E 010°40'0 0.0
2016-May-20 23:33N 54°45' E 010°40'0 0.0
2016-May-20 22:33N 54°45' E 010°40'0 0.0
2016-May-20 21:33N 54°45' E 010°40'0 0.0
2016-May-20 20:33N 54°45' E 010°40'0 0.0
2016-May-20 19:33N 54°45' E 010°40'2 1.7
2016-May-20 18:33N 54°44' E 010°38'14 6.9
2016-May-20 16:28N 54°34' E 010°21'6 6.5
2016-May-20 15:33N 54°29' E 010°15'6 6.3
2016-May-20 14:33N 54°23' E 010°11'1 1.4
2016-May-20 13:32N 54°22' E 010°09'0 0.0
2016-May-20 12:32N 54°22' E 010°09'0 0.0
2016-May-20 11:32N 54°22' E 010°09'0 0.0
2016-May-20 10:32N 54°22' E 010°09'0 0.0
2016-May-20 09:32N 54°22' E 010°09'0 0.0
2016-May-20 08:32N 54°22' E 010°09'4 3.6
2016-May-20 07:31N 54°25' E 010°12'0 0.0
2016-May-20 06:30N 54°25' E 010°12'0 0.0
2016-May-20 05:33N 54°25' E 010°12'0 0.0
2016-May-20 04:33N 54°25' E 010°12'0 0.0
2016-May-20 03:33N 54°25' E 010°12'0 0.0
2016-May-20 02:33N 54°25' E 010°12'0 0.0
2016-May-20 01:33N 54°25' E 010°12'0 0.0
2016-May-20 00:33N 54°25' E 010°12'0 0.0
2016-May-19 23:30N 54°25' E 010°12'0 0.0
2016-May-19 22:33N 54°25' E 010°12'0 0.0
2016-May-19 21:24N 54°25' E 010°12'0 0.0
2016-May-19 20:33N 54°25' E 010°12'0 0.0
2016-May-19 19:33N 54°25' E 010°12'0 0.0
2016-May-19 17:33N 54°25' E 010°12'0 0.0
2016-May-19 16:30N 54°25' E 010°12'0 0.0
2016-May-19 15:34N 54°25' E 010°12'4 4.4
2016-May-19 14:34N 54°30' E 010°14'5 4.5
2016-May-19 13:33N 54°34' E 010°12'5 4.7
2016-May-19 12:33N 54°38' E 010°10'4 4.4
2016-May-19 11:34N 54°42' E 010°05'5 4.7
2016-May-19 10:33N 54°46' E 010°01'5 4.9
2016-May-19 09:32N 54°50' E 009°55'  
Track history (hours):
 
Tides and Currents Weather Stations Pressure Air Temp Water Temp Dewpoint Dewpoint Depression Visibility Wind Speed Wind Dir Waves Ship Positions

Atlantis (Netherlands)

Ship's website: http://www.tallship-company.com/artemis/gb_atlantis.htm

Last reported at 2016-May-29 07:32 UTC. Time now 2016-May-29 07:46 UTC.
Position N 51°14' E 002°56'.

Length 40 m; draft 4.5 m.

Type: Sailing vessel. MMSI: 246253000.

Date/timePositionNaut miles runAvg speedWind from/ knotsBaromVisibWave heightAir tempDewpointWater temp
2016-May-29 07:32N 51°14' E 002°56'0 0.0
2016-May-29 06:32N 51°14' E 002°56'0 0.0
2016-May-29 05:32N 51°14' E 002°56'0 0.0
2016-May-29 04:32N 51°14' E 002°56'0 0.0
2016-May-29 03:32N 51°14' E 002°56'0 0.0
2016-May-29 02:33N 51°14' E 002°56'0 0.0
2016-May-29 01:32N 51°14' E 002°56'0 0.0
2016-May-29 00:32N 51°14' E 002°56'0 0.0
2016-May-28 23:32N 51°14' E 002°56'0 0.0
2016-May-28 22:32N 51°14' E 002°56'0 0.0
2016-May-28 21:32N 51°14' E 002°56'0 0.0
2016-May-28 20:32N 51°14' E 002°56'0 0.0
2016-May-28 19:32N 51°14' E 002°56'0 0.0
2016-May-28 18:32N 51°14' E 002°56'0 0.0
2016-May-28 17:32N 51°14' E 002°56'0 0.0
2016-May-28 16:33N 51°14' E 002°56'3 3.4
2016-May-28 15:33N 51°17' E 002°53'1 0.9
2016-May-28 14:33N 51°17' E 002°52'4 4.1
2016-May-28 13:32N 51°14' E 002°56'0 0.0
2016-May-28 12:31N 51°14' E 002°56'0 0.0
2016-May-28 11:31N 51°14' E 002°56'0 0.0
2016-May-28 10:31N 51°14' E 002°56'0 0.0
2016-May-28 09:31N 51°14' E 002°56'0 0.0
2016-May-28 08:28N 51°14' E 002°56'0 0.0
2016-May-28 07:31N 51°14' E 002°56'0 0.0
2016-May-28 06:31N 51°14' E 002°56'0 0.0
2016-May-28 05:31N 51°14' E 002°56'0 0.0
2016-May-28 04:31N 51°14' E 002°56'0 0.0
2016-May-28 03:28N 51°14' E 002°56'0 0.0
2016-May-28 02:31N 51°14' E 002°56'0 0.0
2016-May-28 01:31N 51°14' E 002°56'0 0.0
2016-May-28 00:31N 51°14' E 002°56'0 0.0
2016-May-27 23:31N 51°14' E 002°56'0 0.0
2016-May-27 22:31N 51°14' E 002°56'0 0.0
2016-May-27 21:31N 51°14' E 002°56'0 0.0
2016-May-27 20:31N 51°14' E 002°56'0 0.0
2016-May-27 19:33N 51°14' E 002°56'0 0.0
2016-May-27 18:32N 51°14' E 002°56'1 1.0
2016-May-27 17:34N 51°15' E 002°55'3 2.8
2016-May-27 16:34N 51°17' E 002°52'4 3.8
2016-May-27 15:34N 51°14' E 002°56'0 0.0
2016-May-27 14:33N 51°14' E 002°56'2 2.2
2016-May-27 13:33N 51°16' E 002°54'0 0.4
2016-May-27 12:33N 51°15' E 002°54'2 1.8
2016-May-27 11:33N 51°14' E 002°56'0 0.0
2016-May-27 10:33N 51°14' E 002°56'0 0.0
2016-May-27 09:33N 51°14' E 002°56'0 0.0
2016-May-27 08:33N 51°14' E 002°56'0 0.1
2016-May-27 07:33N 51°14' E 002°56'0 0.1
2016-May-27 06:33N 51°14' E 002°56'0 0.0
2016-May-27 05:33N 51°14' E 002°56'0 0.0
2016-May-27 04:31N 51°14' E 002°56'0 0.0
2016-May-27 03:33N 51°14' E 002°56'0 0.0
2016-May-27 02:33N 51°14' E 002°56'0 0.0
2016-May-27 01:33N 51°14' E 002°56'0 0.0
2016-May-27 00:33N 51°14' E 002°56'0 0.0
2016-May-26 23:33N 51°14' E 002°56'0 0.0
2016-May-26 22:33N 51°14' E 002°56'0 0.0
2016-May-26 21:33N 51°14' E 002°56'0 0.0
2016-May-26 20:33N 51°14' E 002°56'0 0.0
2016-May-26 19:33N 51°14' E 002°56'0 0.0
2016-May-26 18:33N 51°14' E 002°56'0 0.0
2016-May-26 17:33N 51°14' E 002°56'0 0.0
2016-May-26 16:33N 51°14' E 002°56'0 0.0
2016-May-26 15:33N 51°14' E 002°56'0 0.0
2016-May-26 14:33N 51°14' E 002°56'0 0.0
2016-May-26 13:33N 51°14' E 002°56'0 0.0
2016-May-26 12:33N 51°14' E 002°56'0 0.0
2016-May-26 11:34N 51°14' E 002°56'0 0.0
2016-May-26 10:34N 51°14' E 002°56'1 1.2
2016-May-26 09:33N 51°15' E 002°54'2 2.2
2016-May-26 08:33N 51°17' E 002°53'3 3.3
2016-May-26 07:33N 51°14' E 002°56'0 0.0
2016-May-26 06:27N 51°14' E 002°56'0 0.0
2016-May-26 05:33N 51°14' E 002°56'0 0.0
2016-May-26 04:33N 51°14' E 002°56'0 0.0
2016-May-26 03:33N 51°14' E 002°56'0 0.0
2016-May-26 02:33N 51°14' E 002°56'0 0.0
2016-May-26 01:33N 51°14' E 002°56'0 0.0
2016-May-26 00:33N 51°14' E 002°56'0 0.0
2016-May-25 23:33N 51°14' E 002°56'0 0.0
2016-May-25 22:33N 51°14' E 002°56'0 0.0
2016-May-25 21:33N 51°14' E 002°56'0 0.0
2016-May-25 20:30N 51°14' E 002°56'0 0.0
2016-May-25 19:33N 51°14' E 002°56'0 0.0
2016-May-25 18:33N 51°14' E 002°56'0 0.0
2016-May-25 17:33N 51°14' E 002°56'0 0.0
2016-May-25 16:33N 51°14' E 002°56'0 0.0
2016-May-25 15:33N 51°14' E 002°56'0 0.0
2016-May-25 14:30N 51°14' E 002°56'0 0.0
2016-May-25 13:33N 51°14' E 002°56'0 0.0
2016-May-25 12:33N 51°14' E 002°56'0 0.0
2016-May-25 11:33N 51°14' E 002°56'7 6.7
2016-May-25 10:29N 51°21' E 002°53'9 8.9
2016-May-25 09:28N 51°29' E 002°59'61 6.6
2016-May-25 00:19N 52°22' E 003°46'9 7.8
2016-May-24 23:13N 52°30' E 003°53'6 8.2
2016-May-24 22:31N 52°34' E 003°59'9 8.8
2016-May-24 21:33N 52°40' E 004°09'8 7.9
2016-May-24 20:34N 52°46' E 004°18'7 6.8
2016-May-24 19:34N 52°52' E 004°23'6 6.3
2016-May-24 18:32N 52°58' E 004°28'6 5.7
2016-May-24 17:30N 53°03' E 004°33'31 7.7
2016-May-24 13:29N 53°27' E 005°06'8 8.6
2016-May-24 12:33N 53°30' E 005°18'8 8.4
2016-May-24 11:34N 53°32' E 005°32'7 7.4
2016-May-24 10:33N 53°34' E 005°44'7 7.0
2016-May-24 09:33N 53°36' E 005°55'7 6.8
2016-May-24 08:34N 53°38' E 006°06'7 6.6
2016-May-24 07:33N 53°41' E 006°16'7 7.3
2016-May-24 06:33N 53°43' E 006°28'8 8.0
2016-May-24 05:34N 53°45' E 006°41'8 7.8
2016-May-24 04:33N 53°47' E 006°54'8 8.1
2016-May-24 03:34N 53°48' E 007°07'8 7.6
2016-May-24 02:34N 53°49' E 007°20'8 7.7
2016-May-24 01:33N 53°50' E 007°33'15 7.6
2016-May-23 23:32N 53°57' E 007°56'8 7.9
2016-May-23 22:33N 54°01' E 008°07'6 5.8
2016-May-23 21:33N 54°01' E 008°16'4 4.4
2016-May-23 20:33N 53°60' E 008°24'5 5.1
2016-May-23 19:33N 53°58' E 008°32'8 8.1
2016-May-23 18:33N 53°53' E 008°43'10 9.6
2016-May-23 17:33N 53°51' E 008°59'7 6.6
2016-May-23 16:33N 53°54' E 009°09'8 7.9
2016-May-23 15:33N 53°60' E 009°17'24 7.4
2016-May-23 12:16N 54°19' E 009°43'6 7.6
2016-May-23 11:31N 54°22' E 009°51'7 6.9
2016-May-23 10:33N 54°22' E 010°03'3 3.3
2016-May-23 09:31N 54°22' E 010°08'0 0.4
2016-May-23 08:31N 54°22' E 010°09'0 0.0
2016-May-23 07:31N 54°22' E 010°09'0 0.0
2016-May-23 06:31N 54°22' E 010°09'0 0.0
2016-May-23 05:31N 54°22' E 010°09'0 0.0
2016-May-23 04:31N 54°22' E 010°09'0 0.0
2016-May-23 03:28N 54°22' E 010°09'0 0.0
2016-May-23 02:31N 54°22' E 010°09'0 0.0
2016-May-23 01:31N 54°22' E 010°09'0 0.0
2016-May-23 00:31N 54°22' E 010°09'0 0.0
2016-May-22 23:31N 54°22' E 010°09'0 0.0
2016-May-22 22:31N 54°22' E 010°09'0 0.0
2016-May-22 21:31N 54°22' E 010°09'0 0.0
2016-May-22 20:31N 54°22' E 010°09'0 0.0
2016-May-22 19:31N 54°22' E 010°09'0 0.0
2016-May-22 18:31N 54°22' E 010°09'0 0.0
2016-May-22 17:31N 54°22' E 010°09'0 0.0
2016-May-22 16:31N 54°22' E 010°09'0 0.0
2016-May-22 15:31N 54°22' E 010°09'0 0.0
2016-May-22 14:31N 54°22' E 010°09'0 0.0
2016-May-22 13:31N 54°22' E 010°09'2 2.0
2016-May-22 12:33N 54°23' E 010°12'5 4.9
2016-May-22 11:33N 54°28' E 010°14'15 6.7
2016-May-22 09:17N 54°42' E 010°05'9 5.1
2016-May-22 07:31N 54°50' E 009°56'13 0.6
2016-May-21 10:32N 54°48' E 010°18'6 6.1
2016-May-21 09:33N 54°47' E 010°28'6 5.8
2016-May-21 08:33N 54°46' E 010°38'2 1.7
2016-May-21 07:33N 54°45' E 010°40'0 0.0
2016-May-21 06:33N 54°45' E 010°40'0 0.0
2016-May-21 05:33N 54°45' E 010°40'0 0.0
2016-May-21 04:33N 54°45' E 010°40'0 0.0
2016-May-21 03:33N 54°45' E 010°40'0 0.0
2016-May-21 02:33N 54°45' E 010°40'0 0.0
2016-May-21 01:33N 54°45' E 010°40'0 0.0
2016-May-21 00:33N 54°45' E 010°40'0 0.0
2016-May-20 23:33N 54°45' E 010°40'0 0.0
2016-May-20 22:33N 54°45' E 010°40'0 0.0
2016-May-20 21:33N 54°45' E 010°40'0 0.0
2016-May-20 20:33N 54°45' E 010°40'0 0.0
2016-May-20 19:33N 54°45' E 010°40'2 1.7
2016-May-20 18:33N 54°44' E 010°38'14 6.9
2016-May-20 16:28N 54°34' E 010°21'6 6.5
2016-May-20 15:33N 54°29' E 010°15'6 6.3
2016-May-20 14:33N 54°23' E 010°11'1 1.4
2016-May-20 13:32N 54°22' E 010°09'0 0.0
2016-May-20 12:32N 54°22' E 010°09'0 0.0
2016-May-20 11:32N 54°22' E 010°09'0 0.0
2016-May-20 10:32N 54°22' E 010°09'0 0.0
2016-May-20 09:32N 54°22' E 010°09'0 0.0
2016-May-20 08:32N 54°22' E 010°09'4 3.6
2016-May-20 07:31N 54°25' E 010°12'0 0.0
2016-May-20 06:30N 54°25' E 010°12'0 0.0
2016-May-20 05:33N 54°25' E 010°12'0 0.0
2016-May-20 04:33N 54°25' E 010°12'0 0.0
2016-May-20 03:33N 54°25' E 010°12'0 0.0
2016-May-20 02:33N 54°25' E 010°12'0 0.0
2016-May-20 01:33N 54°25' E 010°12'0 0.0
2016-May-20 00:33N 54°25' E 010°12'0 0.0
2016-May-19 23:30N 54°25' E 010°12'0 0.0
2016-May-19 22:33N 54°25' E 010°12'0 0.0
2016-May-19 21:24N 54°25' E 010°12'0 0.0
2016-May-19 20:33N 54°25' E 010°12'0 0.0
2016-May-19 19:33N 54°25' E 010°12'0 0.0
2016-May-19 17:33N 54°25' E 010°12'0 0.0
2016-May-19 16:30N 54°25' E 010°12'0 0.0
2016-May-19 15:34N 54°25' E 010°12'4 4.4
2016-May-19 14:34N 54°30' E 010°14'5 4.5
2016-May-19 13:33N 54°34' E 010°12'5 4.7
2016-May-19 12:33N 54°38' E 010°10'4 4.4
2016-May-19 11:34N 54°42' E 010°05'5 4.7
2016-May-19 10:33N 54°46' E 010°01'5 4.9
2016-May-19 09:32N 54°50' E 009°55'  

Dump ship's entire track history